sensor_id;sensor_type;location;lat;lon;timestamp;P1;durP1;ratioP1;P2;durP2;ratioP2
15240;SDS011;7723;52.170;9.978;2022-09-09T00:00:21;0.85;;;0.73;;
15240;SDS011;7723;52.170;9.978;2022-09-09T00:02:51;1.00;;;0.82;;
15240;SDS011;7723;52.170;9.978;2022-09-09T00:05:26;1.27;;;0.80;;
15240;SDS011;7723;52.170;9.978;2022-09-09T00:08:00;1.83;;;0.80;;
15240;SDS011;7723;52.170;9.978;2022-09-09T00:10:31;2.35;;;0.90;;
15240;SDS011;7723;52.170;9.978;2022-09-09T00:13:08;1.83;;;0.90;;
15240;SDS011;7723;52.170;9.978;2022-09-09T00:15:47;0.93;;;0.70;;
15240;SDS011;7723;52.170;9.978;2022-09-09T00:18:23;2.75;;;0.80;;
15240;SDS011;7723;52.170;9.978;2022-09-09T00:20:55;4.18;;;1.17;;
15240;SDS011;7723;52.170;9.978;2022-09-09T00:23:28;4.22;;;0.90;;
15240;SDS011;7723;52.170;9.978;2022-09-09T00:25:59;1.08;;;0.90;;
15240;SDS011;7723;52.170;9.978;2022-09-09T00:28:36;1.20;;;0.90;;
15240;SDS011;7723;52.170;9.978;2022-09-09T00:31:10;2.05;;;1.00;;
15240;SDS011;7723;52.170;9.978;2022-09-09T00:33:39;3.05;;;1.05;;
15240;SDS011;7723;52.170;9.978;2022-09-09T00:36:09;0.75;;;0.70;;
15240;SDS011;7723;52.170;9.978;2022-09-09T00:38:42;1.95;;;0.90;;
15240;SDS011;7723;52.170;9.978;2022-09-09T00:41:14;1.60;;;0.93;;
15240;SDS011;7723;52.170;9.978;2022-09-09T00:43:52;2.13;;;1.00;;
15240;SDS011;7723;52.170;9.978;2022-09-09T00:46:40;1.25;;;1.00;;
15240;SDS011;7723;52.170;9.978;2022-09-09T00:49:19;2.22;;;1.00;;
15240;SDS011;7723;52.170;9.978;2022-09-09T00:51:59;2.35;;;0.90;;
15240;SDS011;7723;52.170;9.978;2022-09-09T00:54:40;1.52;;;0.80;;
15240;SDS011;7723;52.170;9.978;2022-09-09T00:57:19;2.17;;;0.88;;
15240;SDS011;7723;52.170;9.978;2022-09-09T00:59:56;2.10;;;1.08;;
15240;SDS011;7723;52.170;9.978;2022-09-09T01:02:30;2.55;;;1.10;;
15240;SDS011;7723;52.170;9.978;2022-09-09T01:05:11;2.92;;;1.08;;
15240;SDS011;7723;52.170;9.978;2022-09-09T01:07:43;2.38;;;0.85;;
15240;SDS011;7723;52.170;9.978;2022-09-09T01:10:16;2.95;;;1.90;;
15240;SDS011;7723;52.170;9.978;2022-09-09T01:12:52;3.05;;;0.90;;
15240;SDS011;7723;52.170;9.978;2022-09-09T01:15:25;2.72;;;1.20;;
15240;SDS011;7723;52.170;9.978;2022-09-09T01:17:56;4.10;;;1.00;;
15240;SDS011;7723;52.170;9.978;2022-09-09T01:20:29;1.38;;;1.15;;
15240;SDS011;7723;52.170;9.978;2022-09-09T01:23:11;1.92;;;0.90;;
15240;SDS011;7723;52.170;9.978;2022-09-09T01:26:08;1.10;;;1.00;;
15240;SDS011;7723;52.170;9.978;2022-09-09T01:28:41;1.80;;;1.00;;
15240;SDS011;7723;52.170;9.978;2022-09-09T01:31:11;2.22;;;0.90;;
15240;SDS011;7723;52.170;9.978;2022-09-09T01:33:41;1.88;;;1.30;;
15240;SDS011;7723;52.170;9.978;2022-09-09T01:36:09;3.90;;;1.10;;
15240;SDS011;7723;52.170;9.978;2022-09-09T01:38:39;1.63;;;0.98;;
15240;SDS011;7723;52.170;9.978;2022-09-09T01:41:08;2.47;;;1.38;;
15240;SDS011;7723;52.170;9.978;2022-09-09T01:43:35;2.60;;;1.08;;
15240;SDS011;7723;52.170;9.978;2022-09-09T01:46:03;3.95;;;1.10;;
15240;SDS011;7723;52.170;9.978;2022-09-09T01:48:30;1.10;;;0.90;;
15240;SDS011;7723;52.170;9.978;2022-09-09T01:50:57;2.53;;;1.08;;
15240;SDS011;7723;52.170;9.978;2022-09-09T01:53:25;2.25;;;1.30;;
15240;SDS011;7723;52.170;9.978;2022-09-09T01:55:55;1.00;;;0.90;;
15240;SDS011;7723;52.170;9.978;2022-09-09T01:58:31;5.88;;;1.25;;
15240;SDS011;7723;52.170;9.978;2022-09-09T02:01:05;2.78;;;1.10;;
15240;SDS011;7723;52.170;9.978;2022-09-09T02:03:38;3.00;;;1.00;;
15240;SDS011;7723;52.170;9.978;2022-09-09T02:06:13;3.55;;;0.90;;
15240;SDS011;7723;52.170;9.978;2022-09-09T02:08:50;3.72;;;1.33;;
15240;SDS011;7723;52.170;9.978;2022-09-09T02:11:20;1.50;;;0.90;;
15240;SDS011;7723;52.170;9.978;2022-09-09T02:13:51;1.92;;;1.17;;
15240;SDS011;7723;52.170;9.978;2022-09-09T02:16:23;1.15;;;0.98;;
15240;SDS011;7723;52.170;9.978;2022-09-09T02:18:55;2.72;;;0.90;;
15240;SDS011;7723;52.170;9.978;2022-09-09T02:21:27;2.00;;;1.50;;
15240;SDS011;7723;52.170;9.978;2022-09-09T02:23:57;1.17;;;0.90;;
15240;SDS011;7723;52.170;9.978;2022-09-09T02:26:29;3.05;;;1.25;;
15240;SDS011;7723;52.170;9.978;2022-09-09T02:29:02;1.60;;;1.00;;
15240;SDS011;7723;52.170;9.978;2022-09-09T02:31:34;2.33;;;1.02;;
15240;SDS011;7723;52.170;9.978;2022-09-09T02:34:03;2.05;;;1.10;;
15240;SDS011;7723;52.170;9.978;2022-09-09T02:36:36;2.92;;;1.00;;
15240;SDS011;7723;52.170;9.978;2022-09-09T02:39:05;1.17;;;0.90;;
15240;SDS011;7723;52.170;9.978;2022-09-09T02:41:35;2.83;;;1.10;;
15240;SDS011;7723;52.170;9.978;2022-09-09T02:44:09;2.15;;;1.27;;
15240;SDS011;7723;52.170;9.978;2022-09-09T02:46:44;4.32;;;1.40;;
15240;SDS011;7723;52.170;9.978;2022-09-09T02:49:25;2.25;;;1.10;;
15240;SDS011;7723;52.170;9.978;2022-09-09T02:52:02;1.92;;;1.00;;
15240;SDS011;7723;52.170;9.978;2022-09-09T02:54:32;1.67;;;1.02;;
15240;SDS011;7723;52.170;9.978;2022-09-09T02:57:01;2.25;;;1.05;;
15240;SDS011;7723;52.170;9.978;2022-09-09T02:59:35;2.42;;;1.42;;
15240;SDS011;7723;52.170;9.978;2022-09-09T03:02:03;2.30;;;1.38;;
15240;SDS011;7723;52.170;9.978;2022-09-09T03:04:30;2.65;;;1.15;;
15240;SDS011;7723;52.170;9.978;2022-09-09T03:06:58;3.15;;;1.23;;
15240;SDS011;7723;52.170;9.978;2022-09-09T03:09:25;2.70;;;1.15;;
15240;SDS011;7723;52.170;9.978;2022-09-09T03:11:52;3.38;;;1.10;;
15240;SDS011;7723;52.170;9.978;2022-09-09T03:14:20;1.10;;;1.00;;
15240;SDS011;7723;52.170;9.978;2022-09-09T03:16:51;2.30;;;1.23;;
15240;SDS011;7723;52.170;9.978;2022-09-09T03:19:18;1.33;;;1.05;;
15240;SDS011;7723;52.170;9.978;2022-09-09T03:21:46;2.40;;;1.13;;
15240;SDS011;7723;52.170;9.978;2022-09-09T03:24:14;2.67;;;1.13;;
15240;SDS011;7723;52.170;9.978;2022-09-09T03:26:41;3.13;;;1.30;;
15240;SDS011;7723;52.170;9.978;2022-09-09T03:29:10;1.42;;;1.10;;
15240;SDS011;7723;52.170;9.978;2022-09-09T03:31:38;2.15;;;1.10;;
15240;SDS011;7723;52.170;9.978;2022-09-09T03:34:07;1.35;;;1.08;;
15240;SDS011;7723;52.170;9.978;2022-09-09T03:36:34;2.17;;;1.20;;
15240;SDS011;7723;52.170;9.978;2022-09-09T03:39:02;2.92;;;1.02;;
15240;SDS011;7723;52.170;9.978;2022-09-09T03:41:30;1.63;;;1.08;;
15240;SDS011;7723;52.170;9.978;2022-09-09T03:43:57;2.95;;;1.65;;
15240;SDS011;7723;52.170;9.978;2022-09-09T03:46:24;3.97;;;1.60;;
15240;SDS011;7723;52.170;9.978;2022-09-09T03:48:52;2.17;;;1.30;;
15240;SDS011;7723;52.170;9.978;2022-09-09T03:51:21;2.75;;;1.10;;
15240;SDS011;7723;52.170;9.978;2022-09-09T03:53:48;2.28;;;1.10;;
15240;SDS011;7723;52.170;9.978;2022-09-09T03:56:15;1.40;;;1.13;;
15240;SDS011;7723;52.170;9.978;2022-09-09T03:58:42;2.78;;;1.00;;
15240;SDS011;7723;52.170;9.978;2022-09-09T04:01:10;2.17;;;1.42;;
15240;SDS011;7723;52.170;9.978;2022-09-09T04:03:39;1.88;;;1.20;;
15240;SDS011;7723;52.170;9.978;2022-09-09T04:06:07;2.22;;;1.10;;
15240;SDS011;7723;52.170;9.978;2022-09-09T04:08:38;3.42;;;1.35;;
15240;SDS011;7723;52.170;9.978;2022-09-09T04:11:05;1.85;;;1.05;;
15240;SDS011;7723;52.170;9.978;2022-09-09T04:13:32;2.85;;;1.15;;
15240;SDS011;7723;52.170;9.978;2022-09-09T04:16:01;4.93;;;1.33;;
15240;SDS011;7723;52.170;9.978;2022-09-09T04:18:30;1.73;;;1.17;;
15240;SDS011;7723;52.170;9.978;2022-09-09T04:20:57;2.28;;;1.33;;
15240;SDS011;7723;52.170;9.978;2022-09-09T04:23:25;2.78;;;1.40;;
15240;SDS011;7723;52.170;9.978;2022-09-09T04:25:56;2.20;;;1.35;;
15240;SDS011;7723;52.170;9.978;2022-09-09T04:28:25;2.88;;;1.40;;
15240;SDS011;7723;52.170;9.978;2022-09-09T04:30:54;2.28;;;1.15;;
15240;SDS011;7723;52.170;9.978;2022-09-09T04:33:23;1.90;;;1.10;;
15240;SDS011;7723;52.170;9.978;2022-09-09T04:35:51;1.15;;;1.05;;
15240;SDS011;7723;52.170;9.978;2022-09-09T04:38:19;3.50;;;1.20;;
15240;SDS011;7723;52.170;9.978;2022-09-09T04:40:48;3.53;;;1.35;;
15240;SDS011;7723;52.170;9.978;2022-09-09T04:43:18;6.15;;;1.65;;
15240;SDS011;7723;52.170;9.978;2022-09-09T04:45:46;1.27;;;1.17;;
15240;SDS011;7723;52.170;9.978;2022-09-09T04:48:14;2.50;;;1.40;;
15240;SDS011;7723;52.170;9.978;2022-09-09T04:50:41;3.35;;;1.50;;
15240;SDS011;7723;52.170;9.978;2022-09-09T04:53:09;3.55;;;1.25;;
15240;SDS011;7723;52.170;9.978;2022-09-09T04:55:36;2.13;;;1.20;;
15240;SDS011;7723;52.170;9.978;2022-09-09T04:58:03;5.00;;;1.55;;
15240;SDS011;7723;52.170;9.978;2022-09-09T05:00:32;1.92;;;1.30;;
15240;SDS011;7723;52.170;9.978;2022-09-09T05:03:02;2.78;;;1.20;;
15240;SDS011;7723;52.170;9.978;2022-09-09T05:05:30;1.85;;;1.50;;
15240;SDS011;7723;52.170;9.978;2022-09-09T05:08:00;3.30;;;1.50;;
15240;SDS011;7723;52.170;9.978;2022-09-09T05:10:28;2.97;;;1.27;;
15240;SDS011;7723;52.170;9.978;2022-09-09T05:12:55;3.70;;;1.52;;
15240;SDS011;7723;52.170;9.978;2022-09-09T05:15:23;5.45;;;1.75;;
15240;SDS011;7723;52.170;9.978;2022-09-09T05:17:51;1.95;;;1.20;;
15240;SDS011;7723;52.170;9.978;2022-09-09T05:20:18;3.38;;;1.50;;
15240;SDS011;7723;52.170;9.978;2022-09-09T05:22:46;2.30;;;1.30;;
15240;SDS011;7723;52.170;9.978;2022-09-09T05:25:14;4.28;;;1.70;;
15240;SDS011;7723;52.170;9.978;2022-09-09T05:27:41;4.70;;;1.40;;
15240;SDS011;7723;52.170;9.978;2022-09-09T05:30:09;4.10;;;1.40;;
15240;SDS011;7723;52.170;9.978;2022-09-09T05:32:36;1.70;;;1.42;;
15240;SDS011;7723;52.170;9.978;2022-09-09T05:35:05;2.13;;;1.25;;
15240;SDS011;7723;52.170;9.978;2022-09-09T05:37:33;6.93;;;1.45;;
15240;SDS011;7723;52.170;9.978;2022-09-09T05:40:00;2.85;;;1.65;;
15240;SDS011;7723;52.170;9.978;2022-09-09T05:42:29;6.88;;;1.52;;
15240;SDS011;7723;52.170;9.978;2022-09-09T05:44:57;3.13;;;1.58;;
15240;SDS011;7723;52.170;9.978;2022-09-09T05:47:24;3.55;;;1.60;;
15240;SDS011;7723;52.170;9.978;2022-09-09T05:49:53;3.88;;;1.48;;
15240;SDS011;7723;52.170;9.978;2022-09-09T05:52:22;2.83;;;1.30;;
15240;SDS011;7723;52.170;9.978;2022-09-09T05:54:51;2.88;;;1.20;;
15240;SDS011;7723;52.170;9.978;2022-09-09T05:57:19;2.20;;;1.20;;
15240;SDS011;7723;52.170;9.978;2022-09-09T05:59:46;3.50;;;1.45;;
15240;SDS011;7723;52.170;9.978;2022-09-09T06:02:13;2.05;;;1.00;;
15240;SDS011;7723;52.170;9.978;2022-09-09T06:04:40;2.55;;;1.23;;
15240;SDS011;7723;52.170;9.978;2022-09-09T06:07:07;2.08;;;1.30;;
15240;SDS011;7723;52.170;9.978;2022-09-09T06:09:36;1.98;;;1.30;;
15240;SDS011;7723;52.170;9.978;2022-09-09T06:12:03;2.90;;;1.30;;
15240;SDS011;7723;52.170;9.978;2022-09-09T06:14:31;2.65;;;1.30;;
15240;SDS011;7723;52.170;9.978;2022-09-09T06:16:58;3.88;;;1.50;;
15240;SDS011;7723;52.170;9.978;2022-09-09T06:19:25;1.63;;;1.20;;
15240;SDS011;7723;52.170;9.978;2022-09-09T06:21:52;3.33;;;1.30;;
15240;SDS011;7723;52.170;9.978;2022-09-09T06:24:19;4.13;;;1.50;;
15240;SDS011;7723;52.170;9.978;2022-09-09T06:26:48;1.88;;;0.95;;
15240;SDS011;7723;52.170;9.978;2022-09-09T06:29:15;3.47;;;1.15;;
15240;SDS011;7723;52.170;9.978;2022-09-09T06:31:42;4.45;;;1.35;;
15240;SDS011;7723;52.170;9.978;2022-09-09T06:34:09;1.55;;;1.17;;
15240;SDS011;7723;52.170;9.978;2022-09-09T06:36:37;2.42;;;1.10;;
15240;SDS011;7723;52.170;9.978;2022-09-09T06:39:05;2.00;;;1.00;;
15240;SDS011;7723;52.170;9.978;2022-09-09T06:41:33;1.58;;;1.20;;
15240;SDS011;7723;52.170;9.978;2022-09-09T06:44:03;2.70;;;1.08;;
15240;SDS011;7723;52.170;9.978;2022-09-09T06:46:30;1.80;;;1.27;;
15240;SDS011;7723;52.170;9.978;2022-09-09T06:48:58;1.25;;;0.98;;
15240;SDS011;7723;52.170;9.978;2022-09-09T06:51:26;2.03;;;1.05;;
15240;SDS011;7723;52.170;9.978;2022-09-09T06:53:54;3.95;;;0.90;;
15240;SDS011;7723;52.170;9.978;2022-09-09T06:56:23;4.35;;;1.50;;
15240;SDS011;7723;52.170;9.978;2022-09-09T06:58:53;8.55;;;1.23;;
15240;SDS011;7723;52.170;9.978;2022-09-09T07:01:23;2.00;;;0.90;;
15240;SDS011;7723;52.170;9.978;2022-09-09T07:03:52;2.78;;;1.08;;
15240;SDS011;7723;52.170;9.978;2022-09-09T07:06:22;3.90;;;1.23;;
15240;SDS011;7723;52.170;9.978;2022-09-09T07:08:50;5.40;;;0.95;;
15240;SDS011;7723;52.170;9.978;2022-09-09T07:11:18;1.88;;;0.95;;
15240;SDS011;7723;52.170;9.978;2022-09-09T07:13:46;1.05;;;0.93;;
15240;SDS011;7723;52.170;9.978;2022-09-09T07:16:15;2.70;;;0.82;;
15240;SDS011;7723;52.170;9.978;2022-09-09T07:18:45;2.65;;;1.10;;
15240;SDS011;7723;52.170;9.978;2022-09-09T07:21:13;2.83;;;1.20;;
15240;SDS011;7723;52.170;9.978;2022-09-09T07:23:41;2.00;;;1.05;;
15240;SDS011;7723;52.170;9.978;2022-09-09T07:26:09;1.17;;;1.08;;
15240;SDS011;7723;52.170;9.978;2022-09-09T07:28:37;3.25;;;1.17;;
15240;SDS011;7723;52.170;9.978;2022-09-09T07:31:04;2.53;;;0.85;;
15240;SDS011;7723;52.170;9.978;2022-09-09T07:33:33;2.20;;;1.10;;
15240;SDS011;7723;52.170;9.978;2022-09-09T07:36:03;4.65;;;1.33;;
15240;SDS011;7723;52.170;9.978;2022-09-09T07:38:36;2.17;;;1.10;;
15240;SDS011;7723;52.170;9.978;2022-09-09T07:41:05;2.75;;;1.17;;
15240;SDS011;7723;52.170;9.978;2022-09-09T07:43:37;3.15;;;1.00;;
15240;SDS011;7723;52.170;9.978;2022-09-09T07:46:05;1.88;;;0.90;;
15240;SDS011;7723;52.170;9.978;2022-09-09T07:48:32;2.10;;;1.15;;
15240;SDS011;7723;52.170;9.978;2022-09-09T07:51:08;4.38;;;1.30;;
15240;SDS011;7723;52.170;9.978;2022-09-09T07:53:38;2.58;;;0.85;;
15240;SDS011;7723;52.170;9.978;2022-09-09T07:56:06;2.70;;;0.90;;
15240;SDS011;7723;52.170;9.978;2022-09-09T07:58:35;2.30;;;1.00;;
15240;SDS011;7723;52.170;9.978;2022-09-09T08:01:06;2.20;;;1.15;;
15240;SDS011;7723;52.170;9.978;2022-09-09T08:03:35;5.97;;;1.10;;
15240;SDS011;7723;52.170;9.978;2022-09-09T08:06:02;2.95;;;1.02;;
15240;SDS011;7723;52.170;9.978;2022-09-09T08:08:33;3.65;;;1.20;;
15240;SDS011;7723;52.170;9.978;2022-09-09T08:11:04;2.95;;;1.63;;
15240;SDS011;7723;52.170;9.978;2022-09-09T08:13:33;3.53;;;1.50;;
15240;SDS011;7723;52.170;9.978;2022-09-09T08:16:04;3.08;;;1.30;;
15240;SDS011;7723;52.170;9.978;2022-09-09T08:18:32;4.88;;;1.30;;
15240;SDS011;7723;52.170;9.978;2022-09-09T08:21:04;2.15;;;0.90;;
15240;SDS011;7723;52.170;9.978;2022-09-09T08:23:35;4.65;;;1.27;;
15240;SDS011;7723;52.170;9.978;2022-09-09T08:26:03;1.23;;;0.90;;
15240;SDS011;7723;52.170;9.978;2022-09-09T08:28:36;4.70;;;1.30;;
15240;SDS011;7723;52.170;9.978;2022-09-09T08:31:07;3.30;;;0.90;;
15240;SDS011;7723;52.170;9.978;2022-09-09T08:33:35;3.28;;;1.10;;
15240;SDS011;7723;52.170;9.978;2022-09-09T08:36:04;2.78;;;1.13;;
15240;SDS011;7723;52.170;9.978;2022-09-09T08:38:32;1.52;;;1.10;;
15240;SDS011;7723;52.170;9.978;2022-09-09T08:41:14;2.47;;;0.93;;
15240;SDS011;7723;52.170;9.978;2022-09-09T08:43:58;1.63;;;1.08;;
15240;SDS011;7723;52.170;9.978;2022-09-09T08:46:32;2.75;;;1.05;;
15240;SDS011;7723;52.170;9.978;2022-09-09T08:49:13;2.03;;;0.88;;
15240;SDS011;7723;52.170;9.978;2022-09-09T08:51:49;2.20;;;1.02;;
15240;SDS011;7723;52.170;9.978;2022-09-09T08:54:18;2.97;;;1.10;;
15240;SDS011;7723;52.170;9.978;2022-09-09T08:56:45;5.85;;;1.20;;
15240;SDS011;7723;52.170;9.978;2022-09-09T08:59:14;2.65;;;1.10;;
15240;SDS011;7723;52.170;9.978;2022-09-09T09:01:54;2.25;;;1.15;;
15240;SDS011;7723;52.170;9.978;2022-09-09T09:04:33;3.05;;;1.10;;
15240;SDS011;7723;52.170;9.978;2022-09-09T09:07:20;1.52;;;0.90;;
15240;SDS011;7723;52.170;9.978;2022-09-09T09:09:57;2.20;;;1.15;;
15240;SDS011;7723;52.170;9.978;2022-09-09T09:12:29;2.38;;;1.10;;
15240;SDS011;7723;52.170;9.978;2022-09-09T09:15:02;1.75;;;1.10;;
15240;SDS011;7723;52.170;9.978;2022-09-09T09:17:42;2.15;;;1.00;;
15240;SDS011;7723;52.170;9.978;2022-09-09T09:20:11;2.90;;;1.35;;
15240;SDS011;7723;52.170;9.978;2022-09-09T09:22:43;2.72;;;0.98;;
15240;SDS011;7723;52.170;9.978;2022-09-09T09:25:18;2.38;;;0.90;;
15240;SDS011;7723;52.170;9.978;2022-09-09T09:27:49;2.95;;;1.05;;
15240;SDS011;7723;52.170;9.978;2022-09-09T09:30:25;3.55;;;1.20;;
15240;SDS011;7723;52.170;9.978;2022-09-09T09:32:55;1.73;;;1.00;;
15240;SDS011;7723;52.170;9.978;2022-09-09T09:35:26;4.63;;;0.90;;
15240;SDS011;7723;52.170;9.978;2022-09-09T09:37:53;3.78;;;1.48;;
15240;SDS011;7723;52.170;9.978;2022-09-09T09:40:22;3.78;;;1.10;;
15240;SDS011;7723;52.170;9.978;2022-09-09T09:42:53;3.97;;;1.27;;
15240;SDS011;7723;52.170;9.978;2022-09-09T09:45:25;2.78;;;1.20;;
15240;SDS011;7723;52.170;9.978;2022-09-09T09:47:59;1.15;;;0.90;;
15240;SDS011;7723;52.170;9.978;2022-09-09T09:50:28;2.42;;;0.90;;
15240;SDS011;7723;52.170;9.978;2022-09-09T09:52:58;1.48;;;1.00;;
15240;SDS011;7723;52.170;9.978;2022-09-09T09:55:31;1.08;;;0.80;;
15240;SDS011;7723;52.170;9.978;2022-09-09T09:58:02;1.75;;;0.95;;
15240;SDS011;7723;52.170;9.978;2022-09-09T10:00:31;2.95;;;1.02;;
15240;SDS011;7723;52.170;9.978;2022-09-09T10:03:00;4.32;;;1.25;;
15240;SDS011;7723;52.170;9.978;2022-09-09T10:05:28;3.42;;;1.23;;
15240;SDS011;7723;52.170;9.978;2022-09-09T10:08:00;2.55;;;1.02;;
15240;SDS011;7723;52.170;9.978;2022-09-09T10:10:34;2.65;;;1.00;;
15240;SDS011;7723;52.170;9.978;2022-09-09T10:13:10;1.23;;;1.10;;
15240;SDS011;7723;52.170;9.978;2022-09-09T10:15:44;2.67;;;0.85;;
15240;SDS011;7723;52.170;9.978;2022-09-09T10:18:22;1.70;;;1.10;;
15240;SDS011;7723;52.170;9.978;2022-09-09T10:21:03;1.00;;;0.85;;
15240;SDS011;7723;52.170;9.978;2022-09-09T10:23:46;4.88;;;1.30;;
15240;SDS011;7723;52.170;9.978;2022-09-09T10:26:32;1.40;;;0.90;;
15240;SDS011;7723;52.170;9.978;2022-09-09T10:29:15;4.68;;;1.00;;
15240;SDS011;7723;52.170;9.978;2022-09-09T10:31:59;3.40;;;1.27;;
15240;SDS011;7723;52.170;9.978;2022-09-09T10:34:39;2.97;;;1.02;;
15240;SDS011;7723;52.170;9.978;2022-09-09T10:37:19;3.40;;;1.08;;
15240;SDS011;7723;52.170;9.978;2022-09-09T10:39:58;4.05;;;1.10;;
15240;SDS011;7723;52.170;9.978;2022-09-09T10:42:39;2.55;;;1.05;;
15240;SDS011;7723;52.170;9.978;2022-09-09T10:45:13;1.85;;;0.77;;
15240;SDS011;7723;52.170;9.978;2022-09-09T10:48:01;4.97;;;1.30;;
15240;SDS011;7723;52.170;9.978;2022-09-09T10:50:53;1.20;;;1.00;;
15240;SDS011;7723;52.170;9.978;2022-09-09T10:53:30;1.77;;;0.80;;
15240;SDS011;7723;52.170;9.978;2022-09-09T10:56:06;0.98;;;0.70;;
15240;SDS011;7723;52.170;9.978;2022-09-09T10:58:37;3.17;;;1.13;;
15240;SDS011;7723;52.170;9.978;2022-09-09T11:01:10;2.42;;;0.80;;
15240;SDS011;7723;52.170;9.978;2022-09-09T11:03:43;5.30;;;1.00;;
15240;SDS011;7723;52.170;9.978;2022-09-09T11:06:16;4.10;;;1.33;;
15240;SDS011;7723;52.170;9.978;2022-09-09T11:08:45;5.90;;;1.30;;
15240;SDS011;7723;52.170;9.978;2022-09-09T11:11:16;4.43;;;1.40;;
15240;SDS011;7723;52.170;9.978;2022-09-09T11:13:49;4.72;;;1.27;;
15240;SDS011;7723;52.170;9.978;2022-09-09T11:16:25;4.35;;;1.52;;
15240;SDS011;7723;52.170;9.978;2022-09-09T11:18:58;2.63;;;0.65;;
15240;SDS011;7723;52.170;9.978;2022-09-09T11:21:28;2.75;;;0.90;;
15240;SDS011;7723;52.170;9.978;2022-09-09T11:23:59;2.40;;;1.00;;
15240;SDS011;7723;52.170;9.978;2022-09-09T11:26:31;2.65;;;0.85;;
15240;SDS011;7723;52.170;9.978;2022-09-09T11:29:14;1.40;;;0.85;;
15240;SDS011;7723;52.170;9.978;2022-09-09T11:32:01;1.17;;;1.00;;
15240;SDS011;7723;52.170;9.978;2022-09-09T11:34:44;2.40;;;0.90;;
15240;SDS011;7723;52.170;9.978;2022-09-09T11:37:32;2.38;;;1.20;;
15240;SDS011;7723;52.170;9.978;2022-09-09T11:40:19;4.25;;;1.05;;
15240;SDS011;7723;52.170;9.978;2022-09-09T11:42:48;3.42;;;1.00;;
15240;SDS011;7723;52.170;9.978;2022-09-09T11:45:28;1.70;;;0.95;;
15240;SDS011;7723;52.170;9.978;2022-09-09T11:47:56;1.83;;;1.15;;
15240;SDS011;7723;52.170;9.978;2022-09-09T11:50:28;2.70;;;1.20;;
15240;SDS011;7723;52.170;9.978;2022-09-09T11:53:04;1.83;;;1.30;;
15240;SDS011;7723;52.170;9.978;2022-09-09T11:55:46;1.90;;;1.55;;
15240;SDS011;7723;52.170;9.978;2022-09-09T11:58:16;3.47;;;1.88;;
15240;SDS011;7723;52.170;9.978;2022-09-09T12:00:47;2.88;;;1.65;;
15240;SDS011;7723;52.170;9.978;2022-09-09T12:03:32;3.42;;;1.77;;
15240;SDS011;7723;52.170;9.978;2022-09-09T12:06:10;3.90;;;1.40;;
15240;SDS011;7723;52.170;9.978;2022-09-09T12:08:41;5.65;;;2.30;;
15240;SDS011;7723;52.170;9.978;2022-09-09T12:11:11;6.22;;;2.22;;
15240;SDS011;7723;52.170;9.978;2022-09-09T12:13:52;6.28;;;2.08;;
15240;SDS011;7723;52.170;9.978;2022-09-09T12:16:29;3.50;;;1.50;;
15240;SDS011;7723;52.170;9.978;2022-09-09T12:19:13;4.75;;;2.33;;
15240;SDS011;7723;52.170;9.978;2022-09-09T12:21:44;2.25;;;1.80;;
15240;SDS011;7723;52.170;9.978;2022-09-09T12:24:19;4.45;;;2.00;;
15240;SDS011;7723;52.170;9.978;2022-09-09T12:26:55;6.32;;;1.95;;
15240;SDS011;7723;52.170;9.978;2022-09-09T12:29:29;3.20;;;2.00;;
15240;SDS011;7723;52.170;9.978;2022-09-09T12:32:06;1.88;;;1.70;;
15240;SDS011;7723;52.170;9.978;2022-09-09T12:34:38;5.53;;;2.10;;
15240;SDS011;7723;52.170;9.978;2022-09-09T12:37:11;4.57;;;2.40;;
15240;SDS011;7723;52.170;9.978;2022-09-09T12:39:45;4.05;;;2.40;;
15240;SDS011;7723;52.170;9.978;2022-09-09T12:42:18;3.78;;;2.15;;
15240;SDS011;7723;52.170;9.978;2022-09-09T12:44:53;2.70;;;1.73;;
15240;SDS011;7723;52.170;9.978;2022-09-09T12:47:24;3.50;;;1.50;;
15240;SDS011;7723;52.170;9.978;2022-09-09T12:49:57;1.75;;;1.30;;
15240;SDS011;7723;52.170;9.978;2022-09-09T12:52:26;3.70;;;1.40;;
15240;SDS011;7723;52.170;9.978;2022-09-09T12:54:58;1.95;;;1.38;;
15240;SDS011;7723;52.170;9.978;2022-09-09T12:57:28;2.03;;;1.48;;
15240;SDS011;7723;52.170;9.978;2022-09-09T13:00:07;2.40;;;1.42;;
15240;SDS011;7723;52.170;9.978;2022-09-09T13:02:46;2.30;;;1.65;;
15240;SDS011;7723;52.170;9.978;2022-09-09T13:05:17;3.65;;;1.80;;
15240;SDS011;7723;52.170;9.978;2022-09-09T13:07:46;5.40;;;1.73;;
15240;SDS011;7723;52.170;9.978;2022-09-09T13:10:15;6.18;;;1.75;;
15240;SDS011;7723;52.170;9.978;2022-09-09T13:12:48;6.20;;;1.98;;
15240;SDS011;7723;52.170;9.978;2022-09-09T13:15:19;3.70;;;2.28;;
15240;SDS011;7723;52.170;9.978;2022-09-09T13:17:51;2.70;;;1.00;;
15240;SDS011;7723;52.170;9.978;2022-09-09T13:20:20;1.60;;;0.98;;
15240;SDS011;7723;52.170;9.978;2022-09-09T13:22:49;0.98;;;0.85;;
15240;SDS011;7723;52.170;9.978;2022-09-09T13:25:19;1.92;;;1.10;;
15240;SDS011;7723;52.170;9.978;2022-09-09T13:27:51;2.28;;;1.00;;
15240;SDS011;7723;52.170;9.978;2022-09-09T13:30:23;3.03;;;1.10;;
15240;SDS011;7723;52.170;9.978;2022-09-09T13:33:17;1.88;;;1.05;;
15240;SDS011;7723;52.170;9.978;2022-09-09T13:35:48;2.30;;;1.17;;
15240;SDS011;7723;52.170;9.978;2022-09-09T13:38:17;2.90;;;1.55;;
15240;SDS011;7723;52.170;9.978;2022-09-09T13:40:57;2.50;;;1.35;;
15240;SDS011;7723;52.170;9.978;2022-09-09T13:43:27;2.33;;;1.35;;
15240;SDS011;7723;52.170;9.978;2022-09-09T13:45:56;2.50;;;0.77;;
15240;SDS011;7723;52.170;9.978;2022-09-09T13:48:26;2.63;;;1.00;;
15240;SDS011;7723;52.170;9.978;2022-09-09T13:50:58;1.83;;;1.10;;
15240;SDS011;7723;52.170;9.978;2022-09-09T13:53:28;4.47;;;1.15;;
15240;SDS011;7723;52.170;9.978;2022-09-09T13:55:55;3.45;;;1.38;;
15240;SDS011;7723;52.170;9.978;2022-09-09T13:58:24;2.85;;;1.30;;
15240;SDS011;7723;52.170;9.978;2022-09-09T14:00:51;6.57;;;1.48;;
15240;SDS011;7723;52.170;9.978;2022-09-09T14:03:19;1.73;;;1.20;;
15240;SDS011;7723;52.170;9.978;2022-09-09T14:05:48;1.60;;;1.20;;
15240;SDS011;7723;52.170;9.978;2022-09-09T14:08:22;2.05;;;1.25;;
15240;SDS011;7723;52.170;9.978;2022-09-09T14:10:52;1.15;;;1.05;;
15240;SDS011;7723;52.170;9.978;2022-09-09T14:13:24;2.83;;;1.42;;
15240;SDS011;7723;52.170;9.978;2022-09-09T14:15:51;3.00;;;1.40;;
15240;SDS011;7723;52.170;9.978;2022-09-09T14:18:18;2.28;;;0.85;;
15240;SDS011;7723;52.170;9.978;2022-09-09T14:20:48;1.48;;;1.10;;
15240;SDS011;7723;52.170;9.978;2022-09-09T14:23:16;1.45;;;0.93;;
15240;SDS011;7723;52.170;9.978;2022-09-09T14:25:44;6.10;;;1.38;;
15240;SDS011;7723;52.170;9.978;2022-09-09T14:28:11;1.70;;;1.10;;
15240;SDS011;7723;52.170;9.978;2022-09-09T14:30:40;1.30;;;1.08;;
15240;SDS011;7723;52.170;9.978;2022-09-09T14:33:10;2.85;;;1.20;;
15240;SDS011;7723;52.170;9.978;2022-09-09T14:35:39;2.10;;;1.00;;
15240;SDS011;7723;52.170;9.978;2022-09-09T14:38:08;2.83;;;1.08;;
15240;SDS011;7723;52.170;9.978;2022-09-09T14:40:36;2.80;;;1.63;;
15240;SDS011;7723;52.170;9.978;2022-09-09T14:43:04;2.75;;;1.20;;
15240;SDS011;7723;52.170;9.978;2022-09-09T14:45:31;1.10;;;1.00;;
15240;SDS011;7723;52.170;9.978;2022-09-09T14:47:58;6.53;;;1.27;;
15240;SDS011;7723;52.170;9.978;2022-09-09T14:50:25;3.97;;;0.95;;
15240;SDS011;7723;52.170;9.978;2022-09-09T14:52:53;1.80;;;0.93;;
15240;SDS011;7723;52.170;9.978;2022-09-09T14:55:22;1.02;;;0.55;;
15240;SDS011;7723;52.170;9.978;2022-09-09T14:57:49;2.35;;;0.70;;
15240;SDS011;7723;52.170;9.978;2022-09-09T15:00:16;1.17;;;0.73;;
15240;SDS011;7723;52.170;9.978;2022-09-09T15:02:43;0.93;;;0.50;;
15240;SDS011;7723;52.170;9.978;2022-09-09T15:05:10;1.63;;;0.80;;
15240;SDS011;7723;52.170;9.978;2022-09-09T15:07:37;1.15;;;0.68;;
15240;SDS011;7723;52.170;9.978;2022-09-09T15:10:05;1.70;;;0.73;;
15240;SDS011;7723;52.170;9.978;2022-09-09T15:12:34;2.22;;;1.13;;
15240;SDS011;7723;52.170;9.978;2022-09-09T15:15:01;1.00;;;0.60;;
15240;SDS011;7723;52.170;9.978;2022-09-09T15:17:29;0.57;;;0.50;;
15240;SDS011;7723;52.170;9.978;2022-09-09T15:19:56;1.02;;;0.85;;
15240;SDS011;7723;52.170;9.978;2022-09-09T15:22:23;0.60;;;0.60;;
15240;SDS011;7723;52.170;9.978;2022-09-09T15:24:52;1.80;;;0.70;;